sensor_id;sensor_type;location;lat;lon;timestamp;temperature;humidity
66708;DHT22;53622;0.000;0.000;2023-05-10T00:00:16;23.20;61.00
66708;DHT22;53622;0.000;0.000;2023-05-10T00:02:47;23.20;61.00
66708;DHT22;53622;0.000;0.000;2023-05-10T00:05:17;23.20;61.10
66708;DHT22;53622;0.000;0.000;2023-05-10T00:07:46;23.20;61.00
66708;DHT22;53622;0.000;0.000;2023-05-10T00:10:15;23.20;60.90
66708;DHT22;53622;0.000;0.000;2023-05-10T00:12:45;23.20;60.80
66708;DHT22;53622;0.000;0.000;2023-05-10T00:15:14;23.20;61.60
66708;DHT22;53622;0.000;0.000;2023-05-10T00:17:43;23.20;60.80
66708;DHT22;53622;0.000;0.000;2023-05-10T00:20:14;23.20;60.80
66708;DHT22;53622;0.000;0.000;2023-05-10T00:22:44;23.20;60.80
66708;DHT22;53622;0.000;0.000;2023-05-10T00:25:13;23.10;60.90
66708;DHT22;53622;0.000;0.000;2023-05-10T00:27:43;23.10;61.10
66708;DHT22;53622;0.000;0.000;2023-05-10T00:30:12;23.10;60.90
66708;DHT22;53622;0.000;0.000;2023-05-10T00:32:42;23.10;60.90
66708;DHT22;53622;0.000;0.000;2023-05-10T00:35:11;23.10;61.00
66708;DHT22;53622;0.000;0.000;2023-05-10T00:37:42;23.10;60.90
66708;DHT22;53622;0.000;0.000;2023-05-10T00:40:12;23.10;60.90
66708;DHT22;53622;0.000;0.000;2023-05-10T00:42:45;23.10;61.10
66708;DHT22;53622;0.000;0.000;2023-05-10T00:45:14;23.10;61.00
66708;DHT22;53622;0.000;0.000;2023-05-10T00:47:43;23.10;60.80
66708;DHT22;53622;0.000;0.000;2023-05-10T00:50:13;23.10;60.90
66708;DHT22;53622;0.000;0.000;2023-05-10T00:52:45;23.10;61.10
66708;DHT22;53622;0.000;0.000;2023-05-10T00:55:15;23.10;60.80
66708;DHT22;53622;0.000;0.000;2023-05-10T00:57:44;23.10;60.80
66708;DHT22;53622;0.000;0.000;2023-05-10T01:00:14;23.10;60.80
66708;DHT22;53622;0.000;0.000;2023-05-10T01:02:46;23.10;60.70
66708;DHT22;53622;0.000;0.000;2023-05-10T01:05:16;23.10;60.70
66708;DHT22;53622;0.000;0.000;2023-05-10T01:07:46;23.10;60.70
66708;DHT22;53622;0.000;0.000;2023-05-10T01:10:16;23.10;60.60
66708;DHT22;53622;0.000;0.000;2023-05-10T01:12:46;23.10;60.50
66708;DHT22;53622;0.000;0.000;2023-05-10T01:15:16;23.10;60.40
66708;DHT22;53622;0.000;0.000;2023-05-10T01:17:47;23.10;60.30
66708;DHT22;53622;0.000;0.000;2023-05-10T01:20:17;23.10;60.20
66708;DHT22;53622;0.000;0.000;2023-05-10T01:23:26;23.10;60.20
66708;DHT22;53622;0.000;0.000;2023-05-10T01:29:39;23.10;60.10
66708;DHT22;53622;0.000;0.000;2023-05-10T01:32:37;23.10;60.10
66708;DHT22;53622;0.000;0.000;2023-05-10T01:35:17;23.10;60.30
66708;DHT22;53622;0.000;0.000;2023-05-10T01:37:55;23.10;60.20
66708;DHT22;53622;0.000;0.000;2023-05-10T01:40:35;23.10;60.10
66708;DHT22;53622;0.000;0.000;2023-05-10T01:43:17;23.10;60.10
66708;DHT22;53622;0.000;0.000;2023-05-10T01:45:58;23.10;60.00
66708;DHT22;53622;0.000;0.000;2023-05-10T01:48:33;23.10;60.00
66708;DHT22;53622;0.000;0.000;2023-05-10T01:51:03;23.10;60.00
66708;DHT22;53622;0.000;0.000;2023-05-10T01:53:35;23.10;59.90
66708;DHT22;53622;0.000;0.000;2023-05-10T01:56:07;23.10;59.90
66708;DHT22;53622;0.000;0.000;2023-05-10T01:58:40;23.10;59.90
66708;DHT22;53622;0.000;0.000;2023-05-10T02:01:13;23.00;59.90
66708;DHT22;53622;0.000;0.000;2023-05-10T02:03:46;23.00;60.20
66708;DHT22;53622;0.000;0.000;2023-05-10T02:06:18;23.00;60.10
66708;DHT22;53622;0.000;0.000;2023-05-10T02:08:49;23.00;59.90
66708;DHT22;53622;0.000;0.000;2023-05-10T02:11:19;23.00;59.90
66708;DHT22;53622;0.000;0.000;2023-05-10T02:13:50;23.00;59.90
66708;DHT22;53622;0.000;0.000;2023-05-10T02:16:26;23.00;60.00
66708;DHT22;53622;0.000;0.000;2023-05-10T02:19:01;23.00;59.90
66708;DHT22;53622;0.000;0.000;2023-05-10T02:21:31;23.00;59.80
66708;DHT22;53622;0.000;0.000;2023-05-10T02:24:03;23.00;59.80
66708;DHT22;53622;0.000;0.000;2023-05-10T02:26:34;23.00;59.90
66708;DHT22;53622;0.000;0.000;2023-05-10T02:29:05;23.00;59.90
66708;DHT22;53622;0.000;0.000;2023-05-10T02:31:36;23.00;59.70
66708;DHT22;53622;0.000;0.000;2023-05-10T02:34:08;23.00;59.80
66708;DHT22;53622;0.000;0.000;2023-05-10T02:36:40;23.00;59.70
66708;DHT22;53622;0.000;0.000;2023-05-10T02:39:10;23.00;59.80
66708;DHT22;53622;0.000;0.000;2023-05-10T02:41:42;23.00;59.70
66708;DHT22;53622;0.000;0.000;2023-05-10T02:44:15;23.00;59.80
66708;DHT22;53622;0.000;0.000;2023-05-10T02:46:47;23.00;59.70
66708;DHT22;53622;0.000;0.000;2023-05-10T02:49:18;23.00;59.70
66708;DHT22;53622;0.000;0.000;2023-05-10T02:51:51;23.00;59.70
66708;DHT22;53622;0.000;0.000;2023-05-10T02:54:29;23.00;59.70
66708;DHT22;53622;0.000;0.000;2023-05-10T02:56:59;22.90;59.60
66708;DHT22;53622;0.000;0.000;2023-05-10T02:59:29;22.90;59.60
66708;DHT22;53622;0.000;0.000;2023-05-10T03:01:59;22.90;59.60
66708;DHT22;53622;0.000;0.000;2023-05-10T03:04:31;22.90;59.50
66708;DHT22;53622;0.000;0.000;2023-05-10T03:07:00;22.90;59.70
66708;DHT22;53622;0.000;0.000;2023-05-10T03:09:30;22.90;59.80
66708;DHT22;53622;0.000;0.000;2023-05-10T03:12:05;22.90;59.90
66708;DHT22;53622;0.000;0.000;2023-05-10T03:14:45;22.90;59.80
66708;DHT22;53622;0.000;0.000;2023-05-10T03:17:23;22.90;59.80
66708;DHT22;53622;0.000;0.000;2023-05-10T03:19:56;22.90;59.70
66708;DHT22;53622;0.000;0.000;2023-05-10T03:22:31;22.90;59.70
66708;DHT22;53622;0.000;0.000;2023-05-10T03:25:04;22.90;59.70
66708;DHT22;53622;0.000;0.000;2023-05-10T03:27:36;22.90;59.70
66708;DHT22;53622;0.000;0.000;2023-05-10T03:30:09;22.90;59.70
66708;DHT22;53622;0.000;0.000;2023-05-10T03:32:39;22.90;59.50
66708;DHT22;53622;0.000;0.000;2023-05-10T03:35:11;22.90;59.50
66708;DHT22;53622;0.000;0.000;2023-05-10T03:37:42;22.90;59.60
66708;DHT22;53622;0.000;0.000;2023-05-10T03:40:11;22.90;59.50
66708;DHT22;53622;0.000;0.000;2023-05-10T03:42:42;22.90;59.50
66708;DHT22;53622;0.000;0.000;2023-05-10T03:45:12;22.90;59.50
66708;DHT22;53622;0.000;0.000;2023-05-10T03:47:41;22.90;59.50
66708;DHT22;53622;0.000;0.000;2023-05-10T03:50:12;22.90;59.50
66708;DHT22;53622;0.000;0.000;2023-05-10T03:52:42;22.90;59.50
66708;DHT22;53622;0.000;0.000;2023-05-10T03:55:12;22.90;59.50
66708;DHT22;53622;0.000;0.000;2023-05-10T03:57:41;22.80;59.50
66708;DHT22;53622;0.000;0.000;2023-05-10T04:00:11;22.80;59.50
66708;DHT22;53622;0.000;0.000;2023-05-10T04:02:41;22.80;59.50
66708;DHT22;53622;0.000;0.000;2023-05-10T04:05:19;22.80;59.50
66708;DHT22;53622;0.000;0.000;2023-05-10T04:07:48;22.80;59.40
66708;DHT22;53622;0.000;0.000;2023-05-10T04:10:18;22.80;59.40
66708;DHT22;53622;0.000;0.000;2023-05-10T04:12:49;22.80;59.40
66708;DHT22;53622;0.000;0.000;2023-05-10T04:15:18;22.80;59.40
66708;DHT22;53622;0.000;0.000;2023-05-10T04:17:47;22.80;59.50
66708;DHT22;53622;0.000;0.000;2023-05-10T04:20:18;22.80;59.40
66708;DHT22;53622;0.000;0.000;2023-05-10T04:22:48;22.80;59.40
66708;DHT22;53622;0.000;0.000;2023-05-10T04:25:17;22.80;59.40
66708;DHT22;53622;0.000;0.000;2023-05-10T04:27:46;22.80;59.40
66708;DHT22;53622;0.000;0.000;2023-05-10T04:30:16;22.80;59.40
66708;DHT22;53622;0.000;0.000;2023-05-10T04:32:45;22.80;59.40
66708;DHT22;53622;0.000;0.000;2023-05-10T04:35:15;22.80;59.30
66708;DHT22;53622;0.000;0.000;2023-05-10T04:37:46;22.80;59.30
66708;DHT22;53622;0.000;0.000;2023-05-10T04:40:15;22.80;59.30
66708;DHT22;53622;0.000;0.000;2023-05-10T04:42:45;22.80;59.30
66708;DHT22;53622;0.000;0.000;2023-05-10T04:45:15;22.80;59.30
66708;DHT22;53622;0.000;0.000;2023-05-10T04:47:44;22.80;59.30
66708;DHT22;53622;0.000;0.000;2023-05-10T04:50:13;22.80;59.30
66708;DHT22;53622;0.000;0.000;2023-05-10T04:52:43;22.80;59.30
66708;DHT22;53622;0.000;0.000;2023-05-10T04:55:14;22.80;59.30
66708;DHT22;53622;0.000;0.000;2023-05-10T04:57:43;22.80;59.30
66708;DHT22;53622;0.000;0.000;2023-05-10T05:00:14;22.80;59.30
66708;DHT22;53622;0.000;0.000;2023-05-10T05:02:44;22.80;59.30
66708;DHT22;53622;0.000;0.000;2023-05-10T05:05:14;22.80;59.40
66708;DHT22;53622;0.000;0.000;2023-05-10T05:07:43;22.80;59.30
66708;DHT22;53622;0.000;0.000;2023-05-10T05:10:14;22.80;59.30
66708;DHT22;53622;0.000;0.000;2023-05-10T05:12:44;22.80;59.30
66708;DHT22;53622;0.000;0.000;2023-05-10T05:15:14;22.70;59.30
66708;DHT22;53622;0.000;0.000;2023-05-10T05:17:44;22.80;59.30
66708;DHT22;53622;0.000;0.000;2023-05-10T05:20:17;22.80;59.20
66708;DHT22;53622;0.000;0.000;2023-05-10T05:22:47;22.70;59.30
66708;DHT22;53622;0.000;0.000;2023-05-10T05:25:18;22.70;59.20
66708;DHT22;53622;0.000;0.000;2023-05-10T05:27:47;22.80;59.30
66708;DHT22;53622;0.000;0.000;2023-05-10T05:30:17;22.70;59.20
66708;DHT22;53622;0.000;0.000;2023-05-10T05:32:46;22.70;59.30
66708;DHT22;53622;0.000;0.000;2023-05-10T05:35:16;22.70;59.20
66708;DHT22;53622;0.000;0.000;2023-05-10T05:37:45;22.70;59.20
66708;DHT22;53622;0.000;0.000;2023-05-10T05:40:15;22.70;59.20
66708;DHT22;53622;0.000;0.000;2023-05-10T05:42:45;22.70;59.60
66708;DHT22;53622;0.000;0.000;2023-05-10T05:45:15;22.80;59.50
66708;DHT22;53622;0.000;0.000;2023-05-10T05:47:45;22.70;59.60
66708;DHT22;53622;0.000;0.000;2023-05-10T05:50:14;22.80;59.70
66708;DHT22;53622;0.000;0.000;2023-05-10T05:52:43;22.80;59.60
66708;DHT22;53622;0.000;0.000;2023-05-10T05:55:12;22.80;59.70
66708;DHT22;53622;0.000;0.000;2023-05-10T05:57:42;22.80;59.70
66708;DHT22;53622;0.000;0.000;2023-05-10T06:00:14;22.80;59.70
66708;DHT22;53622;0.000;0.000;2023-05-10T06:02:45;22.80;59.90
66708;DHT22;53622;0.000;0.000;2023-05-10T06:05:15;22.80;60.40
66708;DHT22;53622;0.000;0.000;2023-05-10T06:07:45;22.80;61.10
66708;DHT22;53622;0.000;0.000;2023-05-10T06:10:14;22.90;61.70
66708;DHT22;53622;0.000;0.000;2023-05-10T06:12:43;22.90;61.90
66708;DHT22;53622;0.000;0.000;2023-05-10T06:15:14;22.90;62.00
66708;DHT22;53622;0.000;0.000;2023-05-10T06:17:44;22.90;63.10
66708;DHT22;53622;0.000;0.000;2023-05-10T06:20:15;22.90;62.70
66708;DHT22;53622;0.000;0.000;2023-05-10T06:22:44;22.90;62.40
66708;DHT22;53622;0.000;0.000;2023-05-10T06:25:14;22.90;62.70
66708;DHT22;53622;0.000;0.000;2023-05-10T06:27:46;23.00;62.60
66708;DHT22;53622;0.000;0.000;2023-05-10T06:30:21;23.00;62.20
66708;DHT22;53622;0.000;0.000;2023-05-10T06:32:55;23.00;62.00
66708;DHT22;53622;0.000;0.000;2023-05-10T06:35:25;23.10;62.40
66708;DHT22;53622;0.000;0.000;2023-05-10T06:37:55;23.10;62.30
66708;DHT22;53622;0.000;0.000;2023-05-10T06:40:25;23.10;62.50
66708;DHT22;53622;0.000;0.000;2023-05-10T06:42:55;23.10;62.10
66708;DHT22;53622;0.000;0.000;2023-05-10T06:45:26;23.10;61.80
66708;DHT22;53622;0.000;0.000;2023-05-10T06:47:56;23.10;62.10
66708;DHT22;53622;0.000;0.000;2023-05-10T06:50:25;23.10;62.30
66708;DHT22;53622;0.000;0.000;2023-05-10T06:53:19;23.10;62.40
66708;DHT22;53622;0.000;0.000;2023-05-10T06:55:49;23.10;62.10
66708;DHT22;53622;0.000;0.000;2023-05-10T06:58:19;23.10;62.10
66708;DHT22;53622;0.000;0.000;2023-05-10T07:00:49;23.10;61.60
66708;DHT22;53622;0.000;0.000;2023-05-10T07:03:19;23.10;61.40
66708;DHT22;53622;0.000;0.000;2023-05-10T07:05:48;23.10;61.30
66708;DHT22;53622;0.000;0.000;2023-05-10T07:08:18;23.10;61.20
66708;DHT22;53622;0.000;0.000;2023-05-10T07:10:47;23.10;61.30
66708;DHT22;53622;0.000;0.000;2023-05-10T07:13:17;23.10;61.10
66708;DHT22;53622;0.000;0.000;2023-05-10T07:15:46;23.10;61.40
66708;DHT22;53622;0.000;0.000;2023-05-10T07:18:17;23.10;61.50
66708;DHT22;53622;0.000;0.000;2023-05-10T07:20:46;23.10;61.30
66708;DHT22;53622;0.000;0.000;2023-05-10T07:23:15;23.10;61.20
66708;DHT22;53622;0.000;0.000;2023-05-10T07:25:46;23.10;61.20
66708;DHT22;53622;0.000;0.000;2023-05-10T07:28:15;23.10;60.80
66708;DHT22;53622;0.000;0.000;2023-05-10T07:30:45;23.10;61.10
66708;DHT22;53622;0.000;0.000;2023-05-10T07:33:15;23.10;60.90
66708;DHT22;53622;0.000;0.000;2023-05-10T07:35:46;23.10;60.90
66708;DHT22;53622;0.000;0.000;2023-05-10T07:38:15;23.10;60.80
66708;DHT22;53622;0.000;0.000;2023-05-10T07:40:45;23.10;60.90
66708;DHT22;53622;0.000;0.000;2023-05-10T07:43:14;23.10;61.10
66708;DHT22;53622;0.000;0.000;2023-05-10T07:45:44;23.10;61.00
66708;DHT22;53622;0.000;0.000;2023-05-10T07:48:13;23.10;60.80
66708;DHT22;53622;0.000;0.000;2023-05-10T07:50:43;23.10;60.80
66708;DHT22;53622;0.000;0.000;2023-05-10T07:53:14;23.10;60.80
66708;DHT22;53622;0.000;0.000;2023-05-10T07:55:44;23.10;60.90
66708;DHT22;53622;0.000;0.000;2023-05-10T07:58:14;23.10;61.10
66708;DHT22;53622;0.000;0.000;2023-05-10T08:00:43;23.10;61.10
66708;DHT22;53622;0.000;0.000;2023-05-10T08:03:12;23.10;60.30
66708;DHT22;53622;0.000;0.000;2023-05-10T08:05:42;23.10;60.30
66708;DHT22;53622;0.000;0.000;2023-05-10T08:08:11;23.10;60.40
66708;DHT22;53622;0.000;0.000;2023-05-10T08:10:41;23.10;60.60
66708;DHT22;53622;0.000;0.000;2023-05-10T08:13:11;23.10;60.60
66708;DHT22;53622;0.000;0.000;2023-05-10T08:15:40;23.10;60.80
66708;DHT22;53622;0.000;0.000;2023-05-10T08:18:10;23.10;60.60
66708;DHT22;53622;0.000;0.000;2023-05-10T08:20:39;23.10;60.80
66708;DHT22;53622;0.000;0.000;2023-05-10T08:23:08;23.10;60.80
66708;DHT22;53622;0.000;0.000;2023-05-10T08:25:38;23.10;60.80
66708;DHT22;53622;0.000;0.000;2023-05-10T08:28:08;23.10;60.70
66708;DHT22;53622;0.000;0.000;2023-05-10T08:30:38;23.10;60.60
66708;DHT22;53622;0.000;0.000;2023-05-10T08:33:08;23.10;60.70
66708;DHT22;53622;0.000;0.000;2023-05-10T08:35:37;23.10;60.80
66708;DHT22;53622;0.000;0.000;2023-05-10T08:38:06;23.00;60.90
66708;DHT22;53622;0.000;0.000;2023-05-10T08:40:37;23.10;61.00
66708;DHT22;53622;0.000;0.000;2023-05-10T08:43:09;23.10;60.80
66708;DHT22;53622;0.000;0.000;2023-05-10T08:45:40;23.10;60.70
66708;DHT22;53622;0.000;0.000;2023-05-10T08:48:11;23.10;60.50
66708;DHT22;53622;0.000;0.000;2023-05-10T08:50:41;23.10;60.40
66708;DHT22;53622;0.000;0.000;2023-05-10T08:53:13;23.10;60.40
66708;DHT22;53622;0.000;0.000;2023-05-10T08:55:44;23.10;60.20
66708;DHT22;53622;0.000;0.000;2023-05-10T08:58:15;23.10;60.20
66708;DHT22;53622;0.000;0.000;2023-05-10T09:00:49;23.20;59.90
66708;DHT22;53622;0.000;0.000;2023-05-10T09:03:20;23.20;60.20
66708;DHT22;53622;0.000;0.000;2023-05-10T09:05:50;23.20;60.10
66708;DHT22;53622;0.000;0.000;2023-05-10T09:08:20;23.20;60.20
66708;DHT22;53622;0.000;0.000;2023-05-10T09:10:49;23.20;60.20
66708;DHT22;53622;0.000;0.000;2023-05-10T09:13:21;23.20;60.10
66708;DHT22;53622;0.000;0.000;2023-05-10T09:15:51;23.20;60.10
66708;DHT22;53622;0.000;0.000;2023-05-10T09:18:22;23.20;60.20
66708;DHT22;53622;0.000;0.000;2023-05-10T09:20:54;23.20;60.20
66708;DHT22;53622;0.000;0.000;2023-05-10T09:23:23;23.20;60.10
66708;DHT22;53622;0.000;0.000;2023-05-10T09:26:02;23.20;60.10
66708;DHT22;53622;0.000;0.000;2023-05-10T09:28:34;23.20;60.10
66708;DHT22;53622;0.000;0.000;2023-05-10T09:31:03;23.20;60.10
66708;DHT22;53622;0.000;0.000;2023-05-10T09:33:43;23.20;60.20
66708;DHT22;53622;0.000;0.000;2023-05-10T09:36:14;23.20;59.90
66708;DHT22;53622;0.000;0.000;2023-05-10T09:38:47;23.20;59.80
66708;DHT22;53622;0.000;0.000;2023-05-10T09:41:18;23.20;59.80
66708;DHT22;53622;0.000;0.000;2023-05-10T09:43:49;23.20;59.80
66708;DHT22;53622;0.000;0.000;2023-05-10T09:46:19;23.20;59.80
66708;DHT22;53622;0.000;0.000;2023-05-10T09:48:49;23.20;59.80
66708;DHT22;53622;0.000;0.000;2023-05-10T09:51:21;23.20;59.70
66708;DHT22;53622;0.000;0.000;2023-05-10T09:54:09;23.20;59.70
66708;DHT22;53622;0.000;0.000;2023-05-10T09:56:38;23.20;59.60
66708;DHT22;53622;0.000;0.000;2023-05-10T09:59:10;23.20;59.60
66708;DHT22;53622;0.000;0.000;2023-05-10T10:01:41;23.20;59.70
66708;DHT22;53622;0.000;0.000;2023-05-10T10:04:10;23.20;59.60
66708;DHT22;53622;0.000;0.000;2023-05-10T10:06:40;23.20;59.50
66708;DHT22;53622;0.000;0.000;2023-05-10T10:09:09;23.20;59.50
66708;DHT22;53622;0.000;0.000;2023-05-10T10:11:39;23.20;59.40
66708;DHT22;53622;0.000;0.000;2023-05-10T10:14:11;23.20;59.40
66708;DHT22;53622;0.000;0.000;2023-05-10T10:16:41;23.20;59.40
66708;DHT22;53622;0.000;0.000;2023-05-10T10:19:33;23.20;59.30
66708;DHT22;53622;0.000;0.000;2023-05-10T10:22:04;23.20;59.10
66708;DHT22;53622;0.000;0.000;2023-05-10T10:24:33;23.20;59.00
66708;DHT22;53622;0.000;0.000;2023-05-10T10:27:11;23.20;59.00
66708;DHT22;53622;0.000;0.000;2023-05-10T10:29:50;23.20;59.00
66708;DHT22;53622;0.000;0.000;2023-05-10T10:32:27;23.20;59.10
66708;DHT22;53622;0.000;0.000;2023-05-10T10:34:59;23.20;59.10
66708;DHT22;53622;0.000;0.000;2023-05-10T10:37:43;23.20;59.00
66708;DHT22;53622;0.000;0.000;2023-05-10T10:40:26;23.20;58.30
66708;DHT22;53622;0.000;0.000;2023-05-10T10:43:21;23.10;57.50
66708;DHT22;53622;0.000;0.000;2023-05-10T10:46:14;23.10;57.50
66708;DHT22;53622;0.000;0.000;2023-05-10T10:48:50;23.10;58.50
66708;DHT22;53622;0.000;0.000;2023-05-10T10:51:20;23.10;58.30
66708;DHT22;53622;0.000;0.000;2023-05-10T10:53:50;23.10;58.40
66708;DHT22;53622;0.000;0.000;2023-05-10T10:56:22;23.20;58.50
66708;DHT22;53622;0.000;0.000;2023-05-10T10:58:52;23.20;58.50
66708;DHT22;53622;0.000;0.000;2023-05-10T11:01:23;23.20;58.50
66708;DHT22;53622;0.000;0.000;2023-05-10T11:04:18;23.20;58.50
66708;DHT22;53622;0.000;0.000;2023-05-10T11:06:48;23.20;58.50
66708;DHT22;53622;0.000;0.000;2023-05-10T11:09:17;23.20;58.60
66708;DHT22;53622;0.000;0.000;2023-05-10T11:11:52;23.20;58.90
66708;DHT22;53622;0.000;0.000;2023-05-10T11:14:23;23.20;59.20
66708;DHT22;53622;0.000;0.000;2023-05-10T11:16:54;23.20;59.20
66708;DHT22;53622;0.000;0.000;2023-05-10T11:19:27;23.20;59.40
66708;DHT22;53622;0.000;0.000;2023-05-10T11:22:12;23.20;59.50
66708;DHT22;53622;0.000;0.000;2023-05-10T11:24:56;23.20;59.60
66708;DHT22;53622;0.000;0.000;2023-05-10T11:27:25;23.20;59.60
66708;DHT22;53622;0.000;0.000;2023-05-10T11:29:55;23.20;59.70
66708;DHT22;53622;0.000;0.000;2023-05-10T11:32:26;23.20;59.70
66708;DHT22;53622;0.000;0.000;2023-05-10T11:34:55;23.20;59.70
66708;DHT22;53622;0.000;0.000;2023-05-10T11:37:28;23.20;59.70
66708;DHT22;53622;0.000;0.000;2023-05-10T11:40:00;23.20;59.70
66708;DHT22;53622;0.000;0.000;2023-05-10T11:42:30;23.20;59.60
66708;DHT22;53622;0.000;0.000;2023-05-10T11:45:01;23.30;59.70
66708;DHT22;53622;0.000;0.000;2023-05-10T11:47:31;23.30;59.70
66708;DHT22;53622;0.000;0.000;2023-05-10T11:50:04;23.30;59.60
66708;DHT22;53622;0.000;0.000;2023-05-10T11:52:36;23.30;59.60
66708;DHT22;53622;0.000;0.000;2023-05-10T11:55:06;23.30;59.60
66708;DHT22;53622;0.000;0.000;2023-05-10T11:57:36;23.40;59.50
66708;DHT22;53622;0.000;0.000;2023-05-10T12:00:07;23.40;59.50
66708;DHT22;53622;0.000;0.000;2023-05-10T12:02:38;23.40;59.60
66708;DHT22;53622;0.000;0.000;2023-05-10T12:05:09;23.40;59.50
66708;DHT22;53622;0.000;0.000;2023-05-10T12:07:38;23.40;59.50
66708;DHT22;53622;0.000;0.000;2023-05-10T12:10:09;23.40;59.40
66708;DHT22;53622;0.000;0.000;2023-05-10T12:12:40;23.40;59.20
66708;DHT22;53622;0.000;0.000;2023-05-10T12:15:11;23.50;59.20
66708;DHT22;53622;0.000;0.000;2023-05-10T12:17:44;23.50;59.10
66708;DHT22;53622;0.000;0.000;2023-05-10T12:20:18;23.50;59.20
66708;DHT22;53622;0.000;0.000;2023-05-10T12:22:50;23.40;58.90
66708;DHT22;53622;0.000;0.000;2023-05-10T12:25:21;23.40;58.80
66708;DHT22;53622;0.000;0.000;2023-05-10T12:27:53;23.50;58.90
66708;DHT22;53622;0.000;0.000;2023-05-10T12:30:24;23.50;59.00
66708;DHT22;53622;0.000;0.000;2023-05-10T12:33:00;23.50;59.00
66708;DHT22;53622;0.000;0.000;2023-05-10T12:35:30;23.50;58.90
66708;DHT22;53622;0.000;0.000;2023-05-10T12:38:00;23.50;58.90
66708;DHT22;53622;0.000;0.000;2023-05-10T12:40:29;23.50;58.90
66708;DHT22;53622;0.000;0.000;2023-05-10T12:42:58;23.50;58.90
66708;DHT22;53622;0.000;0.000;2023-05-10T12:45:27;23.40;58.80
66708;DHT22;53622;0.000;0.000;2023-05-10T12:47:59;23.40;58.90
66708;DHT22;53622;0.000;0.000;2023-05-10T12:50:28;23.40;58.90
66708;DHT22;53622;0.000;0.000;2023-05-10T12:52:58;23.40;58.90
66708;DHT22;53622;0.000;0.000;2023-05-10T12:55:27;23.40;58.90
66708;DHT22;53622;0.000;0.000;2023-05-10T12:57:56;23.40;58.90
66708;DHT22;53622;0.000;0.000;2023-05-10T13:00:25;23.40;58.90
66708;DHT22;53622;0.000;0.000;2023-05-10T13:02:55;23.40;58.80
66708;DHT22;53622;0.000;0.000;2023-05-10T13:05:25;23.40;58.90
66708;DHT22;53622;0.000;0.000;2023-05-10T13:07:55;23.40;58.90
66708;DHT22;53622;0.000;0.000;2023-05-10T13:10:24;23.40;58.80
66708;DHT22;53622;0.000;0.000;2023-05-10T13:12:53;23.40;58.90
66708;DHT22;53622;0.000;0.000;2023-05-10T13:15:22;23.50;58.60
66708;DHT22;53622;0.000;0.000;2023-05-10T13:17:52;23.50;58.50
66708;DHT22;53622;0.000;0.000;2023-05-10T13:20:22;23.50;58.70
66708;DHT22;53622;0.000;0.000;2023-05-10T13:22:52;23.50;58.60
66708;DHT22;53622;0.000;0.000;2023-05-10T13:25:22;23.50;58.70
66708;DHT22;53622;0.000;0.000;2023-05-10T13:27:51;23.50;58.70
66708;DHT22;53622;0.000;0.000;2023-05-10T13:30:20;23.50;58.80
66708;DHT22;53622;0.000;0.000;2023-05-10T13:32:52;23.50;58.70
66708;DHT22;53622;0.000;0.000;2023-05-10T13:35:22;23.40;58.70
66708;DHT22;53622;0.000;0.000;2023-05-10T13:37:53;23.40;58.80
66708;DHT22;53622;0.000;0.000;2023-05-10T13:40:26;23.40;58.80
66708;DHT22;53622;0.000;0.000;2023-05-10T13:42:56;23.40;58.90
66708;DHT22;53622;0.000;0.000;2023-05-10T13:45:25;23.40;58.90
66708;DHT22;53622;0.000;0.000;2023-05-10T13:47:54;23.40;59.00
66708;DHT22;53622;0.000;0.000;2023-05-10T13:50:23;23.50;59.10
66708;DHT22;53622;0.000;0.000;2023-05-10T13:52:54;23.40;59.30
66708;DHT22;53622;0.000;0.000;2023-05-10T13:55:24;23.40;59.40
66708;DHT22;53622;0.000;0.000;2023-05-10T13:57:53;23.40;59.10
66708;DHT22;53622;0.000;0.000;2023-05-10T14:00:22;23.40;56.60
66708;DHT22;53622;0.000;0.000;2023-05-10T14:02:51;23.30;55.10
66708;DHT22;53622;0.000;0.000;2023-05-10T14:05:20;23.30;54.20
66708;DHT22;53622;0.000;0.000;2023-05-10T14:07:54;23.20;52.30
66708;DHT22;53622;0.000;0.000;2023-05-10T14:10:23;23.20;53.10
66708;DHT22;53622;0.000;0.000;2023-05-10T14:12:53;23.20;53.20
66708;DHT22;53622;0.000;0.000;2023-05-10T14:15:22;23.20;54.30
66708;DHT22;53622;0.000;0.000;2023-05-10T14:17:51;23.20;56.10
66708;DHT22;53622;0.000;0.000;2023-05-10T14:20:21;23.20;56.50
66708;DHT22;53622;0.000;0.000;2023-05-10T14:22:50;23.20;56.50
66708;DHT22;53622;0.000;0.000;2023-05-10T14:25:21;23.30;57.00
66708;DHT22;53622;0.000;0.000;2023-05-10T14:27:50;23.30;57.00
66708;DHT22;53622;0.000;0.000;2023-05-10T14:30:22;23.30;57.10
66708;DHT22;53622;0.000;0.000;2023-05-10T14:32:51;23.30;57.20
66708;DHT22;53622;0.000;0.000;2023-05-10T14:35:21;23.30;57.30
66708;DHT22;53622;0.000;0.000;2023-05-10T14:37:51;23.30;57.30
66708;DHT22;53622;0.000;0.000;2023-05-10T14:40:22;23.30;57.30
66708;DHT22;53622;0.000;0.000;2023-05-10T14:42:54;23.30;57.30
66708;DHT22;53622;0.000;0.000;2023-05-10T14:45:24;23.30;57.20
66708;DHT22;53622;0.000;0.000;2023-05-10T14:47:53;23.30;57.10
66708;DHT22;53622;0.000;0.000;2023-05-10T14:50:22;23.30;57.20
66708;DHT22;53622;0.000;0.000;2023-05-10T14:52:58;23.30;57.10
66708;DHT22;53622;0.000;0.000;2023-05-10T14:55:29;23.30;57.10
66708;DHT22;53622;0.000;0.000;2023-05-10T14:57:58;23.30;57.20
66708;DHT22;53622;0.000;0.000;2023-05-10T15:00:29;23.30;57.20
66708;DHT22;53622;0.000;0.000;2023-05-10T15:02:59;23.30;57.20
66708;DHT22;53622;0.000;0.000;2023-05-10T15:05:29;23.30;57.30
66708;DHT22;53622;0.000;0.000;2023-05-10T15:08:07;23.30;57.40
66708;DHT22;53622;0.000;0.000;2023-05-10T15:10:38;23.30;57.50
66708;DHT22;53622;0.000;0.000;2023-05-10T15:13:07;23.30;57.60
66708;DHT22;53622;0.000;0.000;2023-05-10T15:15:36;23.30;57.60
66708;DHT22;53622;0.000;0.000;2023-05-10T15:18:06;23.30;57.60
66708;DHT22;53622;0.000;0.000;2023-05-10T15:20:35;23.30;57.50
66708;DHT22;53622;0.000;0.000;2023-05-10T15:23:04;23.30;57.50
66708;DHT22;53622;0.000;0.000;2023-05-10T15:25:33;23.30;57.50
66708;DHT22;53622;0.000;0.000;2023-05-10T15:28:06;23.30;57.50
66708;DHT22;53622;0.000;0.000;2023-05-10T15:30:35;23.30;57.50
66708;DHT22;53622;0.000;0.000;2023-05-10T15:33:04;23.30;57.40
66708;DHT22;53622;0.000;0.000;2023-05-10T15:35:35;23.30;57.50
66708;DHT22;53622;0.000;0.000;2023-05-10T15:38:05;23.30;57.40
66708;DHT22;53622;0.000;0.000;2023-05-10T15:40:35;23.30;57.50
66708;DHT22;53622;0.000;0.000;2023-05-10T15:43:06;23.30;57.50
66708;DHT22;53622;0.000;0.000;2023-05-10T15:45:35;23.30;57.50
66708;DHT22;53622;0.000;0.000;2023-05-10T15:48:05;23.30;57.40
66708;DHT22;53622;0.000;0.000;2023-05-10T15:50:34;23.30;57.50
66708;DHT22;53622;0.000;0.000;2023-05-10T15:53:04;23.30;57.50
66708;DHT22;53622;0.000;0.000;2023-05-10T15:55:33;23.30;57.40
66708;DHT22;53622;0.000;0.000;2023-05-10T15:58:02;23.30;57.50
66708;DHT22;53622;0.000;0.000;2023-05-10T16:00:33;23.30;57.30
66708;DHT22;53622;0.000;0.000;2023-05-10T16:03:03;23.30;57.40
66708;DHT22;53622;0.000;0.000;2023-05-10T16:05:32;23.30;57.50
66708;DHT22;53622;0.000;0.000;2023-05-10T16:08:01;23.30;57.50
66708;DHT22;53622;0.000;0.000;2023-05-10T16:10:31;23.30;57.40
66708;DHT22;53622;0.000;0.000;2023-05-10T16:13:01;23.30;57.30